Time;durP1;ratioP1;P1;durP2;ratioP2;P2;SDS_P1;SDS_P2;PMS_P1;PMS_P2;Temp;Humidity;BMP_temperature;BMP_pressure;BME280_temperature;BME280_humidity;BME280_pressure;Samples;Min_cycle;Max_cycle;Signal;HPM_P1;HPM_P2
2023/10/12 04:03:37;;;;;;;19.42;14.63;;;;;;;13.14;100.00;100908.44;5616978;31;82307;-61
2023/10/12 04:10:13;;;;;;;17.05;13.43;;;;;;;12.61;95.39;100914.56;5564340;32;33632;-61
2023/10/12 04:16:40;;;;;;;18.00;13.45;;;;;;;12.61;97.48;100909.16;5583138;32;34381;-61
2023/10/12 04:19:45;;;;;;;20.62;13.60;;;;;;;12.59;100.00;100902.50;5583788;32;33623;-61
2023/10/12 04:26:08;;;;;;;18.42;13.48;;;;;;;12.65;94.43;100904.84;5580055;31;34307;-61
2023/10/12 04:29:21;;;;;;;16.02;13.25;;;;;;;12.57;100.00;100905.44;5583699;32;33732;-61
2023/10/12 04:42:33;;;;;;;16.65;12.98;;;;;;;12.61;94.56;100898.41;5583527;31;33658;-63
2023/10/12 04:46:05;;;;;;;17.10;13.13;;;;;;;12.69;100.00;100900.50;5572757;32;33562;-63
2023/10/12 04:52:24;;;;;;;16.75;13.00;;;;;;;12.56;94.12;100898.47;5568633;32;33689;-63
2023/10/12 04:55:28;;;;;;;20.88;14.15;;;;;;;12.64;93.66;100897.84;5582645;31;33687;-63
2023/10/12 04:58:32;;;;;;;17.35;14.65;;;;;;;12.56;100.00;100897.66;5571592;32;33572;-63
2023/10/12 05:02:03;;;;;;;16.25;13.62;;;;;;;12.56;95.43;100901.16;5578095;31;34081;-63
2023/10/12 05:05:37;;;;;;;21.05;13.75;;;;;;;12.63;95.56;100904.31;5576691;32;33362;-63
2023/10/12 05:08:40;;;;;;;16.25;13.43;;;;;;;12.57;94.46;100901.97;5581203;31;33421;-62
2023/10/12 05:11:46;;;;;;;20.83;13.88;;;;;;;12.60;93.95;100912.16;5582908;32;34326;-63
2023/10/12 05:14:55;;;;;;;18.60;14.55;;;;;;;12.63;100.00;100911.59;5570109;32;33740;-63
2023/10/12 05:17:57;;;;;;;20.17;14.73;;;;;;;12.52;98.23;100913.56;5568701;32;33774;-63
2023/10/12 05:21:00;;;;;;;39.65;15.10;;;;;;;12.58;94.46;100915.13;5568881;32;34000;-63
2023/10/12 05:24:02;;;;;;;21.67;14.05;;;;;;;12.68;100.00;100919.59;5569529;32;34030;-63
2023/10/12 05:27:09;;;;;;;17.73;13.60;;;;;;;12.60;97.25;100917.53;5569636;32;33787;-63
2023/10/12 05:30:19;;;;;;;19.92;14.60;;;;;;;12.66;100.00;100913.72;5569348;32;33681;-63
2023/10/12 05:36:42;;;;;;;16.90;14.85;;;;;;;12.76;95.40;100913.66;5569314;32;33642;-63
2023/10/12 05:39:47;;;;;;;21.35;13.88;;;;;;;12.73;99.91;100906.12;5569457;32;33704;-63
2023/10/12 05:42:50;;;;;;;18.05;13.75;;;;;;;12.77;96.00;100915.25;5568992;32;33565;-61
2023/10/12 05:45:53;;;;;;;23.70;15.30;;;;;;;12.83;100.00;100918.69;5561531;32;33572;-61
2023/10/12 05:48:58;;;;;;;20.35;14.80;;;;;;;12.79;100.00;100917.66;5568583;32;33174;-61
2023/10/12 05:52:04;;;;;;;25.70;15.77;;;;;;;12.84;97.31;100925.69;5551027;32;34017;-61
2023/10/12 05:55:19;;;;;;;20.15;16.20;;;;;;;12.92;100.00;100920.50;5566735;32;33537;-62
2023/10/12 05:58:22;;;;;;;19.95;15.48;;;;;;;13.04;100.00;100922.00;5552845;32;34398;-62
2023/10/12 06:01:32;;;;;;;17.67;14.57;;;;;;;13.13;100.00;100918.44;5549890;32;33670;-61
2023/10/12 06:04:39;;;;;;;23.05;15.35;;;;;;;13.19;98.95;100913.81;5549047;32;33577;-61
2023/10/12 06:07:42;;;;;;;22.02;15.70;;;;;;;13.14;97.72;100913.84;5568076;32;34363;-61
2023/10/12 06:10:45;;;;;;;22.98;15.25;;;;;;;13.29;100.00;100921.00;5568962;32;33797;-61
2023/10/12 06:13:52;;;;;;;17.15;13.65;;;;;;;13.33;100.00;100924.72;5568857;32;34533;-61
2023/10/12 06:16:55;;;;;;;19.65;14.10;;;;;;;13.44;100.00;100933.50;5568277;32;33665;-62
2023/10/12 06:20:14;;;;;;;21.65;13.57;;;;;;;13.54;100.00;100938.78;5567458;32;33697;-61
2023/10/12 06:23:17;;;;;;;21.10;12.98;;;;;;;13.49;100.00;100942.34;5565277;32;33754;-62
2023/10/12 06:26:29;;;;;;;18.90;12.40;;;;;;;13.59;100.00;100944.91;5565408;32;33519;-62
2023/10/12 06:29:34;;;;;;;20.15;11.23;;;;;;;13.62;100.00;100943.53;5563060;32;34397;-61
2023/10/12 06:32:39;;;;;;;17.62;11.88;;;;;;;13.74;96.27;100941.25;5566189;32;34302;-61
2023/10/12 06:35:58;;;;;;;26.42;12.27;;;;;;;13.80;99.44;100945.47;5567473;32;34003;-61
2023/10/12 06:42:26;;;;;;;15.80;10.57;;;;;;;13.98;100.00;100952.03;5561987;32;34277;-62
2023/10/12 06:45:29;;;;;;;17.60;10.50;;;;;;;14.20;100.00;100946.06;5567470;32;33528;-63
2023/10/12 06:51:34;;;;;;;21.20;10.55;;;;;;;14.33;94.40;100939.13;5566835;32;33600;-61
2023/10/12 06:54:39;;;;;;;11.90;9.85;;;;;;;14.33;91.92;100931.03;5561679;32;33886;-63
2023/10/12 06:57:52;;;;;;;14.47;9.90;;;;;;;14.35;96.16;100936.97;5557012;32;33585;-63
2023/10/12 07:01:18;;;;;;;13.98;10.43;;;;;;;14.56;100.00;100934.78;5562953;32;33610;-63
2023/10/12 07:04:38;;;;;;;;;;;;;;;14.55;100.00;100934.00;5555314;32;33774;-63
2023/10/12 07:07:46;;;;;;;16.77;9.88;;;;;;;14.53;88.24;100925.37;5566165;32;33995;-63
2023/10/12 07:10:52;;;;;;;14.68;10.30;;;;;;;14.61;93.40;100948.22;5566176;32;33627;-62
2023/10/12 07:13:55;;;;;;;17.73;10.23;;;;;;;14.64;95.73;100944.12;5567870;32;33737;-63
2023/10/12 07:16:57;;;;;;;16.95;10.25;;;;;;;14.65;82.23;100945.72;5566267;32;33084;-63
2023/10/12 07:20:00;;;;;;;17.58;10.68;;;;;;;14.71;83.63;100955.34;5566828;32;33585;-63
2023/10/12 07:23:14;;;;;;;15.73;9.35;;;;;;;14.78;87.31;100945.78;5567049;32;33582;-63
2023/10/12 07:26:17;;;;;;;17.48;9.57;;;;;;;14.85;95.23;100941.91;5565149;32;33094;-63
2023/10/12 07:29:35;;;;;;;13.13;10.63;;;;;;;14.87;84.50;100945.94;5564211;32;34361;-64
2023/10/12 07:32:39;;;;;;;20.45;11.10;;;;;;;15.13;100.00;100937.38;5563851;32;33704;-62
2023/10/12 07:35:42;;;;;;;16.17;10.50;;;;;;;15.12;85.40;100931.19;5565662;32;33153;-62
2023/10/12 07:39:13;;;;;;;15.48;10.57;;;;;;;15.13;84.07;100929.28;5565347;32;33610;-62
2023/10/12 07:42:12;;;;;;;17.50;11.50;;;;;;;15.03;81.44;100924.84;5564699;32;34262;-62
2023/10/12 07:45:16;;;;;;;15.68;11.00;;;;;;;15.26;78.40;100925.78;5564799;32;33642;-62
2023/10/12 07:49:22;;;;;;;19.23;12.10;;;;;;;15.16;77.94;100925.97;5552374;32;33218;-61
2023/10/12 07:55:12;;;;;;;22.00;13.23;;;;;;;15.28;89.49;100921.72;5562289;32;34300;-62
2023/10/12 07:58:18;;;;;;;17.62;11.75;;;;;;;15.29;80.29;100925.19;5560475;32;34385;-61
2023/10/12 08:01:38;;;;;;;20.42;11.40;;;;;;;15.39;80.42;100930.41;5566550;32;33777;-62
2023/10/12 08:05:15;;;;;;;23.83;12.63;;;;;;;15.35;79.43;100925.91;5547068;32;33749;-61
2023/10/12 08:08:32;;;;;;;16.95;12.02;;;;;;;15.48;85.90;100928.63;5561324;32;33171;-62
2023/10/12 08:11:35;;;;;;;18.17;11.63;;;;;;;15.74;91.56;100923.56;5565655;32;33280;-62
2023/10/12 08:17:45;;;;;;;20.30;13.00;;;;;;;15.80;79.86;100921.56;5562111;32;34268;-62
2023/10/12 08:21:00;;;;;;;16.95;13.07;;;;;;;15.84;86.29;100911.72;5565831;32;34133;-62
2023/10/12 08:27:24;;;;;;;18.42;11.90;;;;;;;15.93;79.70;100911.84;5561203;32;33126;-61
2023/10/12 08:30:48;;;;;;;19.50;12.45;;;;;;;16.08;83.56;100902.56;5559957;32;33674;-62
2023/10/12 08:33:48;;;;;;;22.48;13.07;;;;;;;16.26;83.36;100903.53;5557647;32;32390;-62
2023/10/12 08:40:19;;;;;;;21.67;12.02;;;;;;;16.34;77.67;100903.59;5561308;32;35111;-62
2023/10/12 08:43:43;;;;;;;16.60;12.00;;;;;;;16.45;81.56;100901.47;5558326;32;33612;-62
2023/10/12 08:50:04;;;;;;;17.73;12.60;;;;;;;16.28;76.22;100895.91;5560936;32;33715;-63
2023/10/12 08:53:07;;;;;;;25.83;12.70;;;;;;;16.31;76.96;100901.50;5563552;32;33217;-63
2023/10/12 08:56:11;;;;;;;19.62;13.15;;;;;;;16.36;76.89;100885.16;5564710;32;34426;-62
2023/10/12 08:59:15;;;;;;;20.08;12.25;;;;;;;16.55;81.70;100893.09;5559656;32;33601;-63
2023/10/12 09:02:21;;;;;;;23.12;13.32;;;;;;;16.63;77.97;100891.56;5563662;32;34327;-63
2023/10/12 09:05:25;;;;;;;15.37;11.13;;;;;;;16.66;75.50;100896.38;5562420;32;34486;-65
2023/10/12 09:11:38;;;;;;;24.25;12.50;;;;;;;16.90;82.32;100879.81;5556924;32;33791;-64
2023/10/12 09:14:43;;;;;;;17.10;12.23;;;;;;;16.94;77.52;100886.22;5557383;32;33367;-62
2023/10/12 09:17:46;;;;;;;17.07;12.13;;;;;;;17.00;82.19;100881.47;5561879;32;33277;-61
2023/10/12 09:24:21;;;;;;;19.87;12.93;;;;;;;17.13;78.19;100878.66;5559633;32;33983;-62
2023/10/12 09:27:36;;;;;;;22.67;13.07;;;;;;;17.17;75.88;100875.34;5561145;32;31841;-62
2023/10/12 09:30:44;;;;;;;20.67;12.48;;;;;;;17.23;77.29;100872.16;5558785;32;34268;-61
2023/10/12 09:33:54;;;;;;;15.88;13.05;;;;;;;17.26;75.59;100870.75;5566894;32;32517;-62
2023/10/12 09:36:56;;;;;;;20.17;12.57;;;;;;;17.44;81.27;100868.88;5563485;32;33695;-62
2023/10/12 09:39:59;;;;;;;21.83;12.75;;;;;;;17.50;78.12;100870.34;5557511;32;33991;-63
2023/10/12 09:43:14;;;;;;;21.50;12.07;;;;;;;17.61;79.36;100871.63;5559548;32;34332;-63
2023/10/12 09:46:22;;;;;;;22.08;13.07;;;;;;;17.60;77.24;100865.44;5554535;32;33683;-62
2023/10/12 09:49:27;;;;;;;17.75;11.90;;;;;;;17.65;75.95;100863.69;5557974;32;33844;-63
2023/10/12 09:52:46;;;;;;;21.12;11.90;;;;;;;17.73;76.93;100854.78;5560081;32;33727;-62
2023/10/12 09:56:15;;;;;;;22.30;12.85;;;;;;;17.83;80.91;100849.88;5560227;32;34337;-62
2023/10/12 09:59:20;;;;;;;19.45;12.55;;;;;;;17.82;77.96;100851.00;5560215;32;33902;-62
2023/10/12 10:02:29;;;;;;;13.15;11.32;;;;;;;17.90;74.81;100843.19;5561669;32;34303;-62
2023/10/12 10:12:22;;;;;;;15.13;10.45;;;;;;;18.07;76.64;100832.31;5560914;32;34461;-62
2023/10/12 10:15:36;;;;;;;21.08;10.93;;;;;;;18.14;73.79;100831.84;5560565;32;33763;-62
2023/10/12 10:19:13;;;;;;;14.80;9.98;;;;;;;18.24;74.43;100828.81;5559434;32;33698;-61
2023/10/12 10:22:15;;;;;;;20.67;11.05;;;;;;;18.28;76.77;100819.72;5562474;32;34084;-63
2023/10/12 10:25:21;;;;;;;16.40;9.90;;;;;;;18.39;75.56;100824.81;5563005;32;33616;-63
2023/10/12 10:28:28;;;;;;;15.43;10.03;;;;;;;18.45;76.82;100820.81;5554318;32;33668;-64
2023/10/12 10:31:45;;;;;;;13.62;9.38;;;;;;;18.47;78.64;100813.91;5553114;32;34251;-64
2023/10/12 10:34:47;;;;;;;16.58;9.95;;;;;;;18.56;81.44;100819.34;5555300;32;33865;-64
2023/10/12 10:37:58;;;;;;;17.37;9.95;;;;;;;18.58;77.87;100811.69;5554286;32;33162;-63
2023/10/12 10:41:17;;;;;;;;;;;;;;;18.67;81.06;100809.72;5553492;32;33627;-63
2023/10/12 10:44:26;;;;;;;13.82;9.88;;;;;;;18.68;79.08;100810.53;5557072;32;33860;-63
2023/10/12 10:47:32;;;;;;;18.27;9.80;;;;;;;18.71;75.53;100805.25;5555421;32;33702;-63
2023/10/12 10:50:50;;;;;;;18.45;9.95;;;;;;;18.78;76.92;100802.87;5561817;32;33766;-63
2023/10/12 10:53:53;;;;;;;13.73;9.82;;;;;;;18.84;75.05;100798.06;5560391;32;34127;-62
2023/10/12 10:57:14;;;;;;;17.05;10.13;;;;;;;18.94;74.18;100796.87;5553039;32;34306;-63
2023/10/12 11:00:17;;;;;;;18.37;9.77;;;;;;;19.02;73.11;100799.56;5563922;32;33423;-63
2023/10/12 11:03:20;;;;;;;14.23;9.23;;;;;;;19.11;71.93;100793.31;5562102;32;34283;-63
2023/10/12 11:06:28;;;;;;;16.25;9.70;;;;;;;19.18;74.13;100783.50;5567601;32;33752;-63
2023/10/12 11:09:49;;;;;;;;;;;;;;;19.16;74.57;100788.47;5556483;32;35340;-63
2023/10/12 11:12:54;;;;;;;15.88;9.77;;;;;;;19.22;74.48;100781.72;5557965;32;34689;-63
2023/10/12 11:15:56;;;;;;;17.08;9.52;;;;;;;19.31;75.62;100787.13;5555836;32;33869;-64
2023/10/12 11:18:59;;;;;;;17.50;10.32;;;;;;;19.34;74.07;100782.94;5565784;32;33687;-64
2023/10/12 11:22:07;;;;;;;16.37;10.05;;;;;;;19.36;73.00;100783.41;5568056;32;33201;-64
2023/10/12 11:25:15;;;;;;;16.37;9.57;;;;;;;19.39;72.59;100774.59;5567148;32;34928;-64
2023/10/12 11:28:22;;;;;;;14.27;9.18;;;;;;;19.43;71.91;100770.88;5566068;32;34042;-64
2023/10/12 11:31:31;;;;;;;22.98;10.30;;;;;;;19.47;74.63;100768.31;5563034;32;33663;-63
2023/10/12 11:34:44;;;;;;;16.80;10.00;;;;;;;19.47;74.27;100762.87;5562914;32;34324;-63
2023/10/12 11:37:47;;;;;;;15.70;9.93;;;;;;;19.49;74.43;100755.94;5551472;32;33625;-63
2023/10/12 11:40:55;;;;;;;13.10;8.90;;;;;;;19.47;74.32;100752.78;5566981;32;33770;-63
2023/10/12 11:44:07;;;;;;;14.45;9.73;;;;;;;19.51;74.66;100752.91;5566439;32;34026;-63
2023/10/12 11:47:23;;;;;;;17.00;9.88;;;;;;;19.63;75.89;100754.91;5563310;32;33455;-63
2023/10/12 11:50:32;;;;;;;14.40;9.23;;;;;;;19.63;74.16;100747.56;5560622;32;33861;-64
2023/10/12 11:53:38;;;;;;;15.98;8.98;;;;;;;19.69;74.67;100750.88;5562386;32;33626;-63
2023/10/12 11:56:44;;;;;;;15.52;9.43;;;;;;;19.73;75.51;100740.12;5560728;32;34214;-63
2023/10/12 11:59:46;;;;;;;16.05;9.90;;;;;;;19.79;74.95;100734.16;5564408;32;33566;-63
2023/10/12 12:02:57;;;;;;;13.77;9.48;;;;;;;19.87;76.47;100729.78;5561103;32;34307;-63
2023/10/12 12:06:02;;;;;;;17.77;9.88;;;;;;;19.86;75.56;100728.16;5556234;32;33670;-63
2023/10/12 12:09:08;;;;;;;16.25;9.15;;;;;;;19.89;74.40;100725.56;5556193;32;33450;-64
2023/10/12 12:12:12;;;;;;;;;;;;;;;19.94;74.82;100735.47;5565003;32;34391;-63
2023/10/12 12:15:14;;;;;;;20.58;9.30;;;;;;;19.96;74.19;100733.19;5562186;32;34609;-64
2023/10/12 12:18:18;;;;;;;21.12;9.48;;;;;;;20.07;73.43;100737.09;5564795;32;33733;-64
2023/10/12 12:21:34;;;;;;;17.45;9.25;;;;;;;20.16;74.32;100726.94;5556750;32;34192;-63
2023/10/12 12:24:37;;;;;;;17.80;9.40;;;;;;;20.21;72.95;100725.13;5558053;32;33962;-63
2023/10/12 12:27:42;;;;;;;14.80;9.27;;;;;;;20.29;72.65;100710.59;5564693;32;33762;-64
2023/10/12 12:30:55;;;;;;;15.85;9.80;;;;;;;20.36;72.64;100708.13;5562844;32;33640;-64
2023/10/12 12:34:06;;;;;;;12.85;8.80;;;;;;;20.41;71.81;100702.47;5561340;32;33709;-64
2023/10/12 12:37:09;;;;;;;14.43;8.70;;;;;;;20.50;71.42;100697.72;5566402;32;34291;-63
2023/10/12 12:40:30;;;;;;;15.35;9.23;;;;;;;20.56;71.74;100710.03;5568199;32;34115;-64
2023/10/12 12:43:34;;;;;;;17.23;9.63;;;;;;;20.58;71.11;100696.84;5566162;32;33592;-63
2023/10/12 12:46:37;;;;;;;14.82;9.48;;;;;;;20.60;71.85;100691.84;5566515;32;34338;-64
2023/10/12 12:49:41;;;;;;;17.70;9.48;;;;;;;20.58;71.98;100679.72;5563343;32;33674;-64
2023/10/12 12:52:43;;;;;;;14.10;8.18;;;;;;;20.70;73.56;100674.25;5567237;32;33460;-64
2023/10/12 12:55:46;;;;;;;14.32;9.30;;;;;;;20.68;71.97;100664.84;5561928;32;33644;-63
2023/10/12 12:58:51;;;;;;;16.55;9.07;;;;;;;20.62;72.33;100664.25;5562224;32;33706;-63
2023/10/12 13:01:54;;;;;;;15.85;9.00;;;;;;;20.63;70.93;100654.97;5565941;32;33669;-64
2023/10/12 13:04:56;;;;;;;21.92;9.75;;;;;;;20.70;71.55;100652.47;5566622;32;34248;-63
2023/10/12 13:08:00;;;;;;;15.35;9.45;;;;;;;20.70;72.00;100648.97;5558880;32;33576;-64
2023/10/12 13:11:05;;;;;;;14.20;8.73;;;;;;;20.74;72.54;100647.13;5551667;32;33623;-64
2023/10/12 13:14:08;;;;;;;;;;;;;;;20.69;72.61;100642.69;5564859;32;33604;-64
2023/10/12 13:17:12;;;;;;;17.37;10.68;;;;;;;20.78;71.40;100639.84;5563194;32;34078;-63
2023/10/12 13:20:21;;;;;;;18.58;9.07;;;;;;;20.76;72.05;100640.22;5554234;32;33538;-64
2023/10/12 13:23:23;;;;;;;16.30;9.15;;;;;;;20.76;71.82;100642.94;5559713;32;33691;-64
2023/10/12 13:26:26;;;;;;;19.80;9.32;;;;;;;20.80;71.53;100643.84;5556468;32;33599;-64
2023/10/12 13:29:28;;;;;;;16.35;8.55;;;;;;;20.86;70.88;100642.47;5562758;32;34466;-64
2023/10/12 13:32:31;;;;;;;15.45;8.35;;;;;;;20.88;69.86;100637.44;5561309;32;33242;-64
2023/10/12 13:35:44;;;;;;;21.20;8.65;;;;;;;20.94;70.29;100645.41;5568082;32;33695;-64
2023/10/12 13:38:46;;;;;;;17.12;8.70;;;;;;;20.99;70.80;100645.16;5566030;32;34381;-63
2023/10/12 13:41:48;;;;;;;23.45;9.18;;;;;;;21.05;69.93;100641.06;5561430;32;33738;-61
2023/10/12 13:44:52;;;;;;;18.67;8.88;;;;;;;20.99;69.74;100635.06;5558877;32;33618;-64
2023/10/12 13:47:55;;;;;;;15.10;8.50;;;;;;;20.96;70.67;100637.66;5562187;32;33423;-63
2023/10/12 13:51:47;;;;;;;16.45;8.52;;;;;;;20.97;70.98;100636.53;5566900;32;34396;-64
2023/10/12 13:54:25;;;;;;;19.40;8.70;;;;;;;20.97;70.24;100625.62;5560797;32;34261;-62
2023/10/12 13:57:33;;;;;;;16.42;8.43;;;;;;;20.97;69.23;100628.38;5557001;32;33700;-61
2023/10/12 14:00:37;;;;;;;16.65;8.23;;;;;;;21.00;68.45;100623.00;5561313;32;33712;-61
2023/10/12 14:03:41;;;;;;;16.50;8.90;;;;;;;21.00;68.39;100612.12;5559094;32;33828;-62
2023/10/12 14:06:43;;;;;;;15.40;8.00;;;;;;;21.03;68.51;100607.91;5562045;32;34283;-61
2023/10/12 14:09:48;;;;;;;16.08;8.40;;;;;;;21.06;68.82;100608.00;5553912;32;33725;-61
2023/10/12 14:12:53;;;;;;;19.20;8.75;;;;;;;21.07;69.25;100611.53;5566638;32;33686;-61
2023/10/12 14:15:55;;;;;;;17.77;8.95;;;;;;;21.07;68.67;100612.31;5561408;32;33761;-61
2023/10/12 14:18:58;;;;;;;15.02;8.45;;;;;;;21.06;67.96;100608.00;5560926;32;33820;-61
2023/10/12 14:22:03;;;;;;;21.30;8.82;;;;;;;21.07;68.98;100615.03;5555550;32;33587;-62
2023/10/12 14:25:07;;;;;;;16.70;8.27;;;;;;;21.07;68.72;100609.59;5557304;32;33218;-59
2023/10/12 14:28:11;;;;;;;15.73;7.37;;;;;;;21.14;70.01;100608.22;5564794;32;33630;-61
2023/10/12 14:31:13;;;;;;;14.00;7.72;;;;;;;21.08;68.53;100604.94;5555318;32;33639;-61
2023/10/12 14:34:16;;;;;;;14.50;7.97;;;;;;;21.08;69.17;100604.94;5561646;32;34420;-61
2023/10/12 14:37:22;;;;;;;14.18;8.23;;;;;;;21.02;68.62;100604.38;5557499;32;33843;-61
2023/10/12 14:40:29;;;;;;;17.58;8.38;;;;;;;20.98;69.64;100606.19;5555641;32;33730;-62
2023/10/12 14:43:33;;;;;;;18.50;8.40;;;;;;;20.98;70.13;100597.25;5561170;32;34287;-61
2023/10/12 14:46:35;;;;;;;12.02;7.60;;;;;;;20.95;70.76;100601.44;5558544;32;34409;-60
2023/10/12 14:49:37;;;;;;;19.17;8.48;;;;;;;20.94;71.64;100599.84;5564645;32;33357;-62
2023/10/12 14:52:40;;;;;;;19.25;8.25;;;;;;;20.88;70.89;100601.22;5566029;32;33650;-61
2023/10/12 14:55:43;;;;;;;16.37;9.15;;;;;;;20.88;70.93;100604.75;5563309;32;34397;-61
2023/10/12 14:58:46;;;;;;;18.02;8.13;;;;;;;20.87;70.85;100603.16;5560476;32;33688;-60
2023/10/12 15:01:51;;;;;;;18.33;8.23;;;;;;;20.83;70.39;100598.75;5565461;32;34342;-62
2023/10/12 15:04:53;;;;;;;;;;;;;;;20.81;71.43;100579.22;5568704;32;34306;-61
2023/10/12 15:07:56;;;;;;;16.10;7.90;;;;;;;20.77;72.96;100590.03;5568415;32;33768;-61
2023/10/12 15:11:00;;;;;;;16.67;8.48;;;;;;;20.72;75.08;100594.91;5566047;32;34404;-62
2023/10/12 15:14:02;;;;;;;15.75;8.95;;;;;;;20.67;74.48;100604.13;5568703;32;33792;-62
2023/10/12 15:17:08;;;;;;;20.42;8.68;;;;;;;20.62;77.55;100605.12;5568233;32;34299;-62
2023/10/12 15:20:15;;;;;;;19.50;9.13;;;;;;;20.54;81.46;100606.06;5567558;32;33689;-63
2023/10/12 15:23:19;;;;;;;19.58;8.82;;;;;;;20.49;79.48;100608.19;5568188;32;33600;-63
2023/10/12 15:26:22;;;;;;;16.48;8.32;;;;;;;20.42;78.77;100616.91;5567970;32;33642;-62
2023/10/12 15:29:26;;;;;;;15.63;9.18;;;;;;;20.40;81.70;100616.47;5561358;32;33747;-62
2023/10/12 15:32:28;;;;;;;15.65;8.88;;;;;;;20.35;84.42;100619.41;5567667;32;33788;-62
2023/10/12 15:35:31;;;;;;;18.62;9.40;;;;;;;20.25;83.41;100626.09;5567814;32;33830;-62
2023/10/12 15:38:33;;;;;;;17.42;8.98;;;;;;;20.19;83.62;100625.53;5568557;32;34397;-62
2023/10/12 15:41:36;;;;;;;18.10;9.40;;;;;;;20.12;89.02;100627.22;5568438;32;33696;-62
2023/10/12 15:44:41;;;;;;;26.77;9.60;;;;;;;20.06;87.66;100631.28;5567639;32;33726;-62
2023/10/12 15:47:47;;;;;;;25.62;11.18;;;;;;;19.95;86.64;100637.16;5568227;32;33733;-61
2023/10/12 15:50:50;;;;;;;23.12;9.70;;;;;;;19.88;86.76;100650.53;5568189;32;34594;-62
2023/10/12 15:53:52;;;;;;;22.48;10.35;;;;;;;19.80;91.25;100647.91;5567150;32;33729;-62
2023/10/12 15:56:55;;;;;;;18.73;9.57;;;;;;;19.73;89.24;100659.31;5567331;32;34478;-61
2023/10/12 15:59:59;;;;;;;24.80;11.63;;;;;;;19.65;92.98;100652.06;5567554;32;33576;-61
2023/10/12 16:03:06;;;;;;;27.05;11.48;;;;;;;19.55;90.09;100655.94;5566748;32;34359;-61
2023/10/12 16:06:11;;;;;;;27.90;11.90;;;;;;;19.51;92.30;100649.59;5566973;32;33640;-62
2023/10/12 16:09:20;;;;;;;26.75;12.05;;;;;;;19.41;89.28;100652.72;5566997;32;33771;-61
2023/10/12 16:12:24;;;;;;;25.00;11.43;;;;;;;19.35;89.95;100645.91;5566900;32;33646;-62
2023/10/12 16:15:27;;;;;;;21.15;10.80;;;;;;;19.28;90.05;100651.06;5567297;32;33756;-62
2023/10/12 16:18:30;;;;;;;26.10;11.57;;;;;;;19.21;90.17;100657.03;5566727;32;34271;-62
